createdAt,value
2023-02-27T00:00:00.077Z,94773.76
2023-02-27T00:02:28.616Z,94774.86
2023-02-27T00:04:58.293Z,94777.68
2023-02-27T00:07:29.051Z,94779.00
2023-02-27T00:09:57.512Z,94779.87
2023-02-27T00:12:26.019Z,94777.02
2023-02-27T00:14:54.511Z,94778.55
2023-02-27T00:17:26.041Z,94775.73
2023-02-27T00:19:54.618Z,94778.64
2023-02-27T00:22:23.105Z,94778.59
2023-02-27T00:24:51.713Z,94777.76
2023-02-27T00:27:20.225Z,94779.94
2023-02-27T00:29:48.812Z,94784.70
2023-02-27T00:32:17.456Z,94784.25
2023-02-27T00:34:48.960Z,94784.17
2023-02-27T00:37:17.634Z,94778.95
2023-02-27T00:39:46.104Z,94774.00
2023-02-27T00:42:14.882Z,94776.94
2023-02-27T00:44:43.493Z,94776.91
2023-02-27T00:47:12.308Z,94771.64
2023-02-27T00:49:41.321Z,94771.24
2023-02-27T00:52:10.092Z,94768.73
2023-02-27T00:54:38.634Z,94772.56
2023-02-27T00:57:07.428Z,94773.93
2023-02-27T00:59:35.772Z,94775.08
2023-02-27T01:02:04.233Z,94772.27
2023-02-27T01:04:32.779Z,94770.96
2023-02-27T01:07:01.265Z,94770.44
2023-02-27T01:09:29.799Z,94773.81
2023-02-27T01:11:58.502Z,94771.52
2023-02-27T01:14:27.124Z,94774.48
2023-02-27T01:16:55.683Z,94773.77
2023-02-27T01:19:25.404Z,94779.23
2023-02-27T01:21:54.046Z,94780.63
2023-02-27T01:24:22.599Z,94777.64
2023-02-27T01:26:52.866Z,94782.41
2023-02-27T01:29:21.441Z,94783.00
2023-02-27T01:31:50.551Z,94783.98
2023-02-27T01:34:19.113Z,94782.23
2023-02-27T01:36:47.601Z,94786.30
2023-02-27T01:39:17.706Z,94790.60
2023-02-27T01:41:46.691Z,94790.66
2023-02-27T01:44:15.108Z,94792.83
2023-02-27T01:46:44.382Z,94796.95
2023-02-27T01:49:24.320Z,94796.66
2023-02-27T01:52:02.121Z,94795.75
2023-02-27T01:54:35.409Z,94795.05
2023-02-27T01:57:07.599Z,94798.98
2023-02-27T01:59:39.845Z,94795.69
2023-02-27T02:02:23.874Z,94799.56
2023-02-27T02:04:55.261Z,94801.98
2023-02-27T02:07:25.585Z,94805.66
2023-02-27T02:09:57.347Z,94807.52
2023-02-27T02:12:30.263Z,94810.01
2023-02-27T02:14:58.780Z,94807.42
2023-02-27T02:17:45.754Z,94805.48
2023-02-27T02:20:45.824Z,94809.17
2023-02-27T02:23:24.954Z,94808.58
2023-02-27T02:26:12.155Z,94804.02
2023-02-27T02:29:01.221Z,94807.91
2023-02-27T02:31:32.787Z,94813.77
2023-02-27T02:34:08.473Z,94812.80
2023-02-27T02:36:58.306Z,94816.80
2023-02-27T02:39:32.885Z,94819.10
2023-02-27T02:42:04.421Z,94826.36
2023-02-27T02:44:39.256Z,94822.12
2023-02-27T02:47:17.015Z,94826.52
2023-02-27T02:50:05.418Z,94827.44
2023-02-27T02:53:00.858Z,94829.56
2023-02-27T02:55:42.665Z,94828.58
2023-02-27T02:58:22.723Z,94829.16
2023-02-27T03:01:22.856Z,94828.73
2023-02-27T03:04:04.963Z,94829.39
2023-02-27T03:06:38.991Z,94833.30
2023-02-27T03:09:17.287Z,94840.15
2023-02-27T03:11:49.161Z,94843.86
2023-02-27T03:14:43.297Z,94845.84
2023-02-27T03:17:19.721Z,94851.66
2023-02-27T03:20:04.011Z,94859.27
2023-02-27T03:22:38.412Z,94867.06
2023-02-27T03:25:11.213Z,94865.02
2023-02-27T03:27:54.122Z,94868.36
2023-02-27T03:30:35.516Z,94873.52
2023-02-27T03:33:27.994Z,94877.05
2023-02-27T03:36:05.700Z,94881.69
2023-02-27T03:38:42.239Z,94881.05
2023-02-27T03:41:26.507Z,94888.10
2023-02-27T03:44:14.460Z,94883.00
2023-02-27T03:46:43.091Z,94889.53
2023-02-27T03:49:11.844Z,94891.23
2023-02-27T03:51:40.560Z,94894.02
2023-02-27T03:54:11.747Z,94897.05
2023-02-27T03:57:03.970Z,94899.40
2023-02-27T03:59:34.137Z,94898.01
2023-02-27T04:02:04.077Z,94904.11
2023-02-27T04:04:34.000Z,94908.85
2023-02-27T04:07:33.906Z,94911.50
2023-02-27T04:10:11.806Z,94914.02
2023-02-27T04:13:08.453Z,94915.58
2023-02-27T04:16:19.456Z,94919.55
2023-02-27T04:19:10.372Z,94921.50
2023-02-27T04:21:57.441Z,94919.69
2023-02-27T04:24:31.828Z,94921.48
2023-02-27T04:27:18.789Z,94920.89
2023-02-27T04:30:16.997Z,94924.19
2023-02-27T04:33:00.554Z,94923.56
2023-02-27T04:35:40.070Z,94924.55
2023-02-27T04:38:28.883Z,94929.56
2023-02-27T04:41:03.547Z,94932.90
2023-02-27T04:43:36.116Z,94933.74
2023-02-27T04:46:07.307Z,94934.77
2023-02-27T04:48:48.327Z,94935.83
2023-02-27T04:51:22.121Z,94937.81
2023-02-27T04:54:00.788Z,94943.48
2023-02-27T04:56:35.033Z,94944.12
2023-02-27T04:59:27.554Z,94945.31
2023-02-27T05:02:00.177Z,94948.82
2023-02-27T05:04:33.376Z,94950.98
2023-02-27T05:07:03.493Z,94957.60
2023-02-27T05:09:51.597Z,94963.47
2023-02-27T05:12:27.306Z,94960.75
2023-02-27T05:15:13.684Z,94966.50
2023-02-27T05:17:47.260Z,94975.88
2023-02-27T05:20:17.674Z,94980.52
2023-02-27T05:23:00.055Z,94986.12
2023-02-27T05:25:49.928Z,94988.29
2023-02-27T05:28:38.260Z,94987.99
2023-02-27T05:31:23.510Z,94990.59
2023-02-27T05:34:04.365Z,94992.39
2023-02-27T05:36:46.335Z,94996.02
2023-02-27T05:39:19.652Z,95000.90
2023-02-27T05:41:56.932Z,95008.96
2023-02-27T05:44:35.597Z,95008.59
2023-02-27T05:47:13.151Z,95014.05
2023-02-27T05:49:44.190Z,95019.15
2023-02-27T05:52:17.706Z,95021.61
2023-02-27T05:54:57.196Z,95027.77
2023-02-27T05:58:04.985Z,95026.89
2023-02-27T06:00:38.920Z,95032.44
2023-02-27T06:03:07.773Z,95037.30
2023-02-27T06:05:39.967Z,95046.59
2023-02-27T06:08:08.601Z,95048.95
2023-02-27T06:10:38.393Z,95049.61
2023-02-27T06:13:07.057Z,95054.92
2023-02-27T06:15:35.832Z,95060.98
2023-02-27T06:18:04.931Z,95065.17
2023-02-27T06:20:33.476Z,95068.42
2023-02-27T06:23:02.214Z,95076.13
2023-02-27T06:25:30.967Z,95078.84
2023-02-27T06:27:59.438Z,95080.77
2023-02-27T06:30:28.201Z,95083.65
2023-02-27T06:32:57.220Z,95090.91
2023-02-27T06:35:25.742Z,95092.36
2023-02-27T06:37:54.315Z,95092.25
2023-02-27T06:40:23.421Z,95097.52
2023-02-27T06:42:52.307Z,95103.66
2023-02-27T06:45:20.881Z,95103.60
2023-02-27T06:47:49.983Z,95111.77
2023-02-27T06:50:18.872Z,95109.84
2023-02-27T06:52:47.226Z,95116.06
2023-02-27T06:55:20.528Z,95116.59
2023-02-27T06:57:49.958Z,95121.42
2023-02-27T07:00:19.151Z,95123.58
2023-02-27T07:02:47.664Z,95122.23
2023-02-27T07:05:16.304Z,95123.73
2023-02-27T07:07:44.792Z,95126.16
2023-02-27T07:10:14.541Z,95129.64
2023-02-27T07:12:42.621Z,95132.23
2023-02-27T07:15:11.506Z,95131.59
2023-02-27T07:17:39.834Z,95134.01
2023-02-27T07:20:10.766Z,95135.20
2023-02-27T07:22:40.335Z,95137.45
2023-02-27T07:25:09.565Z,95139.48
2023-02-27T07:27:37.720Z,95145.34
2023-02-27T07:30:06.535Z,95148.55
2023-02-27T07:32:34.664Z,95151.46
2023-02-27T07:35:04.041Z,95150.40
2023-02-27T07:37:32.349Z,95151.95
2023-02-27T07:40:00.428Z,95157.23
2023-02-27T07:42:28.821Z,95159.70
2023-02-27T07:44:56.901Z,95158.66
2023-02-27T07:47:25.320Z,95162.16
2023-02-27T07:49:53.652Z,95164.05
2023-02-27T07:52:21.832Z,95172.18
2023-02-27T07:54:50.138Z,95173.10
2023-02-27T07:57:18.664Z,95174.93
2023-02-27T07:59:48.470Z,95177.22
2023-02-27T08:02:16.729Z,95178.80
2023-02-27T08:04:45.870Z,95179.35
2023-02-27T08:07:14.047Z,95184.02
2023-02-27T08:09:42.109Z,95183.29
2023-02-27T08:12:10.203Z,95186.11
2023-02-27T08:14:39.036Z,95192.46
2023-02-27T08:17:08.269Z,95193.14
2023-02-27T08:19:36.497Z,95193.69
2023-02-27T08:22:04.675Z,95205.80
2023-02-27T08:24:32.713Z,95210.87
2023-02-27T08:27:00.956Z,95216.71
2023-02-27T08:29:31.061Z,95224.05
2023-02-27T08:32:00.457Z,95226.32
2023-02-27T08:34:30.313Z,95231.52
2023-02-27T08:36:59.277Z,95233.23
2023-02-27T08:39:27.276Z,95238.14
2023-02-27T08:41:55.579Z,95237.43
2023-02-27T08:44:23.746Z,95244.38
2023-02-27T08:46:52.573Z,95249.79
2023-02-27T08:49:22.722Z,95255.02
2023-02-27T08:51:52.117Z,95258.02
2023-02-27T08:54:20.878Z,95271.02
2023-02-27T08:56:49.100Z,95272.77
2023-02-27T08:59:17.237Z,95270.63
2023-02-27T09:01:45.348Z,95278.84
2023-02-27T09:04:13.635Z,95283.77
2023-02-27T09:06:41.856Z,95290.06
2023-02-27T09:09:10.463Z,95302.77
2023-02-27T09:11:38.971Z,95305.33
2023-02-27T09:14:07.990Z,95301.69
2023-02-27T09:16:36.083Z,95301.88
2023-02-27T09:19:04.861Z,95298.89
2023-02-27T09:21:33.210Z,95293.68
2023-02-27T09:24:17.137Z,95289.23
2023-02-27T09:26:48.016Z,95286.06
2023-02-27T09:29:16.627Z,95289.70
2023-02-27T09:31:45.019Z,95293.05
2023-02-27T09:34:13.333Z,95296.42
2023-02-27T09:36:41.621Z,95300.41
2023-02-27T09:39:10.779Z,95303.48
2023-02-27T09:41:42.234Z,95316.01
2023-02-27T09:44:39.756Z,95325.91
2023-02-27T09:47:26.596Z,95332.96
2023-02-27T09:50:08.059Z,95338.28
2023-02-27T09:52:37.825Z,95345.13
2023-02-27T09:55:15.423Z,95343.55
2023-02-27T09:57:49.734Z,95346.39
2023-02-27T10:00:38.423Z,95354.86
2023-02-27T10:03:33.883Z,95355.92
2023-02-27T10:06:26.650Z,95359.75
2023-02-27T10:09:01.135Z,95358.69
2023-02-27T10:11:43.593Z,95361.54
2023-02-27T10:14:42.980Z,95357.17
2023-02-27T10:17:22.630Z,95357.66
2023-02-27T10:19:52.939Z,95360.52
2023-02-27T10:22:33.926Z,95373.48
2023-02-27T10:25:30.222Z,95375.92
2023-02-27T10:28:11.248Z,95373.30
2023-02-27T10:30:39.984Z,95368.75
2023-02-27T10:33:28.310Z,95370.77
2023-02-27T10:35:56.882Z,95376.35
2023-02-27T10:39:00.286Z,95378.35
2023-02-27T10:41:29.673Z,95383.50
2023-02-27T10:44:00.202Z,95391.71
2023-02-27T10:46:31.656Z,95397.38
2023-02-27T10:49:01.905Z,95401.00
2023-02-27T10:51:35.100Z,95399.93
2023-02-27T10:54:23.820Z,95407.56
2023-02-27T10:56:55.874Z,95408.33
2023-02-27T10:59:37.521Z,95410.63
2023-02-27T11:02:20.960Z,95410.54
2023-02-27T11:04:56.666Z,95412.80
2023-02-27T11:07:39.309Z,95421.14
2023-02-27T11:10:13.530Z,95421.51
2023-02-27T11:12:57.572Z,95420.96
2023-02-27T11:15:30.178Z,95420.63
2023-02-27T11:18:29.433Z,95424.04
2023-02-27T11:21:29.145Z,95426.16
2023-02-27T11:24:19.299Z,95432.59
2023-02-27T11:27:05.464Z,95437.38
2023-02-27T11:29:34.989Z,95438.09
2023-02-27T11:32:22.131Z,95440.97
2023-02-27T11:34:52.485Z,95439.59
2023-02-27T11:37:37.121Z,95441.74
2023-02-27T11:40:13.016Z,95443.44
2023-02-27T11:42:51.213Z,95447.63
2023-02-27T11:46:13.251Z,95449.77
2023-02-27T11:48:23.673Z,95455.40
2023-02-27T11:50:58.082Z,95455.30
2023-02-27T11:53:44.811Z,95451.02
2023-02-27T11:56:24.193Z,95456.63
2023-02-27T11:59:04.528Z,95457.81
2023-02-27T12:01:43.824Z,95459.21
2023-02-27T12:04:24.228Z,95456.32
2023-02-27T12:07:00.210Z,95462.58
2023-02-27T12:09:43.120Z,95473.36
2023-02-27T12:12:26.727Z,95487.39
2023-02-27T12:15:05.540Z,95499.64
2023-02-27T12:18:20.479Z,95498.27
2023-02-27T12:20:55.759Z,95506.55
2023-02-27T12:23:41.532Z,95508.33
2023-02-27T12:26:31.923Z,95501.45
2023-02-27T12:29:31.221Z,95507.56
2023-02-27T12:32:10.377Z,95510.85
2023-02-27T12:34:52.156Z,95513.88
2023-02-27T12:37:25.093Z,95513.56
2023-02-27T12:39:58.336Z,95513.83
2023-02-27T12:42:36.246Z,95519.31
2023-02-27T12:45:26.880Z,95526.72
2023-02-27T12:48:09.908Z,95537.73
2023-02-27T12:51:20.264Z,95545.08
2023-02-27T12:54:13.025Z,95548.84
2023-02-27T12:57:07.458Z,95554.35
2023-02-27T13:00:06.781Z,95558.16
2023-02-27T13:02:45.976Z,95554.98
2023-02-27T13:05:24.984Z,95556.96
2023-02-27T13:08:04.006Z,95558.00
2023-02-27T13:10:40.781Z,95566.57
2023-02-27T13:13:37.789Z,95569.23
2023-02-27T13:16:33.524Z,95577.30
2023-02-27T13:19:27.096Z,95579.33
2023-02-27T13:22:16.189Z,95577.91
2023-02-27T13:24:51.022Z,95578.04
2023-02-27T13:27:25.335Z,95586.71
2023-02-27T13:30:14.379Z,95593.65
2023-02-27T13:32:54.576Z,95596.59
2023-02-27T13:35:39.292Z,95596.67
2023-02-27T13:38:29.547Z,95602.70
2023-02-27T13:40:57.958Z,95606.32
2023-02-27T13:43:43.317Z,95609.27
2023-02-27T13:46:25.386Z,95613.86
2023-02-27T13:48:54.827Z,95616.70
2023-02-27T13:51:34.979Z,95615.77
2023-02-27T13:54:15.229Z,95618.33
2023-02-27T13:56:47.047Z,95622.68
2023-02-27T13:59:34.260Z,95622.53
2023-02-27T14:02:05.100Z,95624.38
2023-02-27T14:04:36.989Z,95620.98
2023-02-27T14:07:10.901Z,95630.87
2023-02-27T14:09:42.667Z,95638.96
2023-02-27T14:12:43.729Z,95638.92
2023-02-27T14:15:22.515Z,95636.45
2023-02-27T14:18:09.575Z,95638.12
2023-02-27T14:20:39.902Z,95643.08
2023-02-27T14:23:17.003Z,95643.60
2023-02-27T14:25:54.803Z,95651.63
2023-02-27T14:28:51.789Z,95656.83
2023-02-27T14:31:31.216Z,95657.23
2023-02-27T14:34:06.040Z,95659.88
2023-02-27T14:36:58.327Z,95657.10
2023-02-27T14:39:35.586Z,95661.58
2023-02-27T14:42:24.133Z,95659.40
2023-02-27T14:44:53.072Z,95661.55
2023-02-27T14:47:27.190Z,95665.90
2023-02-27T14:49:56.328Z,95666.83
2023-02-27T14:52:29.837Z,95668.45
2023-02-27T14:55:22.004Z,95672.98
2023-02-27T14:57:55.193Z,95676.10
2023-02-27T15:00:58.516Z,95674.96
2023-02-27T15:03:38.978Z,95678.02
2023-02-27T15:06:17.772Z,95682.45
2023-02-27T15:08:52.386Z,95686.53
2023-02-27T15:11:23.023Z,95691.06
2023-02-27T15:14:01.528Z,95688.92
2023-02-27T15:16:40.966Z,95690.86
2023-02-27T15:19:17.645Z,95696.06
2023-02-27T15:21:51.458Z,95698.27
2023-02-27T15:24:40.582Z,95707.16
2023-02-27T15:27:23.429Z,95711.21
2023-02-27T15:29:57.178Z,95712.39
2023-02-27T15:32:33.452Z,95714.70
2023-02-27T15:35:05.500Z,95714.47
2023-02-27T15:37:34.407Z,95713.61
2023-02-27T15:40:06.027Z,95718.36
2023-02-27T15:42:37.658Z,95721.40
2023-02-27T15:45:07.720Z,95727.16
2023-02-27T15:47:36.088Z,95733.80
2023-02-27T15:50:12.416Z,95743.30
2023-02-27T15:52:55.318Z,95748.16
2023-02-27T15:55:31.252Z,95752.16
2023-02-27T15:58:03.346Z,95756.40
2023-02-27T16:00:35.283Z,95754.09
2023-02-27T16:03:07.142Z,95756.13
2023-02-27T16:05:41.638Z,95765.45
2023-02-27T16:08:18.711Z,95768.18
2023-02-27T16:10:47.782Z,95764.88
2023-02-27T16:13:25.197Z,95769.20
2023-02-27T16:16:26.696Z,95778.81
2023-02-27T16:18:58.443Z,95786.27
2023-02-27T16:21:31.183Z,95785.30
2023-02-27T16:24:19.223Z,95788.89
2023-02-27T16:26:53.162Z,95794.74
2023-02-27T16:29:33.918Z,95798.05
2023-02-27T16:32:03.860Z,95798.75
2023-02-27T16:34:45.547Z,95809.64
2023-02-27T16:37:27.197Z,95814.68
2023-02-27T16:39:55.250Z,95824.27
2023-02-27T16:42:23.359Z,95830.52
2023-02-27T16:44:51.614Z,95829.94
2023-02-27T16:47:19.672Z,95836.58
2023-02-27T16:49:49.637Z,95841.64
2023-02-27T16:52:18.012Z,95843.85
2023-02-27T16:54:46.281Z,95842.13
2023-02-27T16:57:14.460Z,95838.62
2023-02-27T16:59:44.143Z,95842.72
2023-02-27T17:02:15.039Z,95845.27
2023-02-27T17:04:44.516Z,95855.70
2023-02-27T17:07:18.859Z,95859.67
2023-02-27T17:09:47.717Z,95862.98
2023-02-27T17:12:15.795Z,95863.24
2023-02-27T17:14:44.053Z,95870.73
2023-02-27T17:17:12.261Z,95878.27
2023-02-27T17:19:40.806Z,95880.68
2023-02-27T17:22:08.896Z,95887.27
2023-02-27T17:24:38.530Z,95884.97
2023-02-27T17:27:06.894Z,95890.30
2023-02-27T17:29:36.784Z,95894.52
2023-02-27T17:32:05.226Z,95890.29
2023-02-27T17:34:33.403Z,95892.25
2023-02-27T17:37:01.657Z,95890.21
2023-02-27T17:39:29.789Z,95891.94
2023-02-27T17:41:58.292Z,95892.61
2023-02-27T17:44:27.100Z,95890.52
2023-02-27T17:46:55.147Z,95882.98
2023-02-27T17:49:23.317Z,95882.02
2023-02-27T17:51:51.637Z,95881.42
2023-02-27T17:54:19.752Z,95887.15
2023-02-27T17:56:47.777Z,95899.69
2023-02-27T17:59:16.047Z,95899.73
2023-02-27T18:01:44.087Z,95903.56
2023-02-27T18:04:12.963Z,95905.20
2023-02-27T18:06:40.858Z,95908.52
2023-02-27T18:09:09.061Z,95908.11
2023-02-27T18:11:37.621Z,95908.14
2023-02-27T18:14:06.221Z,95902.96
2023-02-27T18:16:35.698Z,95903.58
2023-02-27T18:19:06.125Z,95906.01
2023-02-27T18:21:35.177Z,95908.79
2023-02-27T18:24:03.839Z,95908.17
2023-02-27T18:26:33.258Z,95911.48
2023-02-27T18:29:05.333Z,95915.70
2023-02-27T18:31:39.863Z,95917.73
2023-02-27T18:34:08.479Z,95922.64
2023-02-27T18:36:37.443Z,95924.25
2023-02-27T18:39:06.314Z,95924.48
2023-02-27T18:41:35.016Z,95926.05
2023-02-27T18:44:03.406Z,95928.31
2023-02-27T18:46:32.768Z,95927.03
2023-02-27T18:49:01.557Z,95931.39
2023-02-27T18:51:30.115Z,95929.55
2023-02-27T18:54:00.830Z,95923.00
2023-02-27T18:56:31.030Z,95923.29
2023-02-27T18:59:05.088Z,95928.29
2023-02-27T19:01:36.707Z,95932.95
2023-02-27T19:04:07.355Z,95939.17
2023-02-27T19:06:41.186Z,95938.66
2023-02-27T19:09:13.041Z,95940.30
2023-02-27T19:11:41.182Z,95948.71
2023-02-27T19:14:13.490Z,95955.39
2023-02-27T19:16:41.843Z,95958.77
2023-02-27T19:19:10.953Z,95958.23
2023-02-27T19:21:41.012Z,95957.39
2023-02-27T19:24:12.154Z,95961.80
2023-02-27T19:26:42.648Z,95960.06
2023-02-27T19:29:10.738Z,95961.13
2023-02-27T19:31:38.891Z,95967.02
2023-02-27T19:34:07.090Z,95968.23
2023-02-27T19:36:35.137Z,95961.31
2023-02-27T19:39:04.235Z,95962.41
2023-02-27T19:41:33.592Z,95972.20
2023-02-27T19:44:02.133Z,95974.55
2023-02-27T19:46:33.758Z,95980.56
2023-02-27T19:49:04.921Z,95979.86
2023-02-27T19:51:33.218Z,95976.03
2023-02-27T19:54:01.288Z,95971.84
2023-02-27T19:56:30.027Z,95975.66
2023-02-27T19:59:00.948Z,95976.48
2023-02-27T20:01:38.950Z,95978.83
2023-02-27T20:04:07.959Z,95983.30
2023-02-27T20:06:42.148Z,95982.11
2023-02-27T20:09:14.630Z,95981.08
2023-02-27T20:11:44.722Z,95987.80
2023-02-27T20:14:14.433Z,95996.15
2023-02-27T20:16:42.603Z,95997.96
2023-02-27T20:19:14.050Z,95999.11
2023-02-27T20:21:43.239Z,95995.89
2023-02-27T20:24:11.670Z,95993.03
2023-02-27T20:26:50.810Z,96001.73
2023-02-27T20:29:22.218Z,95996.33
2023-02-27T20:31:52.760Z,95999.00
2023-02-27T20:34:26.324Z,96003.52
2023-02-27T20:36:55.858Z,96003.16
2023-02-27T20:39:24.872Z,96001.30
2023-02-27T20:41:52.938Z,95997.15
2023-02-27T20:44:21.077Z,95999.54
2023-02-27T20:46:49.634Z,95997.57
2023-02-27T20:49:17.885Z,95990.86
2023-02-27T20:51:46.666Z,95985.52
2023-02-27T20:54:20.493Z,95981.23
2023-02-27T20:56:52.583Z,95980.94
2023-02-27T20:59:24.755Z,95981.30
2023-02-27T21:01:53.837Z,95972.73
2023-02-27T21:04:43.371Z,95977.63
2023-02-27T21:07:14.369Z,95979.65
2023-02-27T21:09:42.945Z,95976.89
2023-02-27T21:12:11.896Z,95977.19
2023-02-27T21:14:39.996Z,95983.26
2023-02-27T21:17:08.062Z,95984.22
2023-02-27T21:19:38.107Z,95990.29
2023-02-27T21:22:06.311Z,96003.26
2023-02-27T21:24:34.342Z,96000.71
2023-02-27T21:27:02.383Z,96005.05
2023-02-27T21:29:30.416Z,96014.36
2023-02-27T21:31:59.021Z,96019.21
2023-02-27T21:34:28.359Z,96016.73
2023-02-27T21:36:56.593Z,96013.44
2023-02-27T21:39:28.516Z,96004.41
2023-02-27T21:41:56.929Z,95988.55
2023-02-27T21:44:25.395Z,95982.89
2023-02-27T21:46:54.337Z,95985.15
2023-02-27T21:49:25.702Z,95986.64
2023-02-27T21:51:54.672Z,95986.89
2023-02-27T21:54:23.358Z,96014.02
2023-02-27T21:56:51.598Z,96017.56
2023-02-27T21:59:21.700Z,96014.33
2023-02-27T22:01:49.947Z,96024.36
2023-02-27T22:04:19.857Z,96029.95
2023-02-27T22:06:49.980Z,96025.92
2023-02-27T22:09:19.427Z,96038.55
2023-02-27T22:11:48.533Z,96035.31
2023-02-27T22:14:16.836Z,96039.23
2023-02-27T22:16:45.004Z,96041.52
2023-02-27T22:19:22.165Z,96036.16
2023-02-27T22:21:50.258Z,96033.29
2023-02-27T22:24:18.582Z,96036.85
2023-02-27T22:26:47.914Z,96035.34
2023-02-27T22:29:17.240Z,96036.02
2023-02-27T22:31:46.122Z,96037.28
2023-02-27T22:34:18.599Z,96037.46
2023-02-27T22:36:52.734Z,96040.23
2023-02-27T22:39:21.516Z,96043.23
2023-02-27T22:41:49.738Z,96045.65
2023-02-27T22:44:19.588Z,96035.42
2023-02-27T22:46:49.745Z,96035.75
2023-02-27T22:49:20.701Z,96040.20
2023-02-27T22:51:51.264Z,96039.41
2023-02-27T22:54:22.920Z,96038.70
2023-02-27T22:56:53.094Z,96037.61
2023-02-27T22:59:21.635Z,96040.54
2023-02-27T23:01:50.532Z,96046.04
2023-02-27T23:04:18.901Z,96046.77
2023-02-27T23:06:47.162Z,96041.23
2023-02-27T23:09:18.421Z,96036.39
2023-02-27T23:11:46.602Z,96035.22
2023-02-27T23:14:15.314Z,96036.15
2023-02-27T23:16:46.752Z,96041.41
2023-02-27T23:19:17.799Z,96044.10
2023-02-27T23:21:45.955Z,96044.23
2023-02-27T23:24:17.560Z,96048.81
2023-02-27T23:26:48.827Z,96047.64
2023-02-27T23:29:17.252Z,96047.71
2023-02-27T23:31:45.810Z,96043.93
2023-02-27T23:34:14.098Z,96046.84
2023-02-27T23:36:42.240Z,96051.63
2023-02-27T23:39:10.443Z,96045.59
2023-02-27T23:41:38.580Z,96043.06
2023-02-27T23:44:25.516Z,96043.02
2023-02-27T23:46:53.595Z,96041.38
2023-02-27T23:49:21.783Z,96045.90
2023-02-27T23:51:50.015Z,96046.17
2023-02-27T23:54:18.355Z,96044.00
2023-02-27T23:56:48.397Z,96053.57
2023-02-27T23:59:16.401Z,96056.84
